LFBU/ANG METAR and TAF weather

Enter ICAO airport designator
Station Type Date Time Source
LFBU METAR 2019/11/22 01:30 UTC NOAA

LFBU 220130Z AUTO 15006KT 110V180 CAVOK 06/04 Q1003


Station Type Date Time Source
LFBU Decoded METAR 2019/11/22 01:30 UTC NOAA

Station name not available
Nov 21, 2019 - 08:30 PM EST / 2019.11.22 0130 UTC
Wind: from the SSE (150 degrees) at 7 MPH (6 KT) (direction variable):0
Visibility: greater than 7 mile(s):0
Temperature: 42 F (6 C)
Dew Point: 39 F (4 C)
Relative Humidity: 86%
Pressure (altimeter): 29.62 in. Hg (1003 hPa)
ob: LFBU 220130Z AUTO 15006KT 110V180 CAVOK 06/04 Q1003
cycle: 1

Station Type Date Time Source
LFBU TAF 2019/11/21 21:00 UTC NOAA

TAF
AMD LFBU 212105Z 2121/2218 CNL

Example: see airport list